Time,TemperatureF,DewpointF,PressureIn,WindDirection,WindDirectionDegrees,WindSpeedMPH,WindSpeedGustMPH,Humidity,HourlyPrecipIn,Conditions,Clouds,dailyrainin,SoftwareType,DateUTC
2013-08-04 00:09:00,72.7,69.3,30.03,SE,135,0.0,-999.0,89,-99.99,,,0.00,Acu-Link.com,2013-08-04 05:09:00,
2013-08-04 00:24:00,72.7,69.3,30.02,East,90,1.7,-999.0,89,-99.99,,,0.00,Acu-Link.com,2013-08-04 05:24:00,
2013-08-04 00:40:00,72.5,69.1,30.02,ESE,112,2.7,-999.0,89,-99.99,,,0.00,Acu-Link.com,2013-08-04 05:40:00,
2013-08-04 00:55:00,72.3,68.9,30.03,South,180,2.2,-999.0,89,-99.99,,,0.00,Acu-Link.com,2013-08-04 05:55:00,
2013-08-04 01:10:00,72.1,68.7,30.03,SE,135,0.0,-999.0,89,-99.99,,,0.00,Acu-Link.com,2013-08-04 06:10:00,
2013-08-04 01:26:00,72.0,68.9,30.03,ENE,67,1.7,-999.0,90,-99.99,,,0.00,Acu-Link.com,2013-08-04 06:26:00,
2013-08-04 01:56:00,72.0,68.9,30.01,ENE,67,1.1,-999.0,90,-99.99,,,0.00,Acu-Link.com,2013-08-04 06:56:00,
2013-08-04 02:12:00,72.0,68.9,30.00,East,90,1.7,-999.0,90,-99.99,,,0.00,Acu-Link.com,2013-08-04 07:12:00,
2013-08-04 02:27:00,72.1,69.0,29.99,ESE,112,0.0,-999.0,90,-99.99,,,0.00,Acu-Link.com,2013-08-04 07:27:00,
2013-08-04 02:42:00,72.3,69.2,30.00,East,90,0.0,-999.0,90,-99.99,,,0.00,Acu-Link.com,2013-08-04 07:42:00,
2013-08-04 02:58:00,72.3,69.2,30.00,ENE,67,0.0,-999.0,90,-99.99,,,0.00,Acu-Link.com,2013-08-04 07:58:00,
2013-08-04 03:13:00,72.1,69.0,30.01,WNW,292,0.0,-999.0,90,-99.99,,,0.00,Acu-Link.com,2013-08-04 08:13:00,
2013-08-04 03:28:00,71.8,68.7,30.01,WNW,292,0.0,-999.0,90,-99.99,,,0.00,Acu-Link.com,2013-08-04 08:28:00,
2013-08-04 03:43:00,71.4,68.3,30.01,NE,45,0.0,-999.0,90,-99.99,,,0.00,Acu-Link.com,2013-08-04 08:43:00,
2013-08-04 03:58:00,71.4,68.3,30.02,NNW,337,0.0,-999.0,90,-99.99,,,0.00,Acu-Link.com,2013-08-04 08:58:00,
2013-08-04 04:13:00,71.2,68.1,30.03,West,270,0.0,-999.0,90,-99.99,,,0.00,Acu-Link.com,2013-08-04 09:13:00,
2013-08-04 04:28:00,71.2,68.1,30.03,West,270,0.0,-999.0,90,-99.99,,,0.00,Acu-Link.com,2013-08-04 09:28:00,
2013-08-04 04:43:00,71.2,68.1,30.03,SSE,157,0.0,-999.0,90,-99.99,,,0.00,Acu-Link.com,2013-08-04 09:43:00,
2013-08-04 04:58:00,71.4,68.6,30.02,ENE,67,2.7,-999.0,91,-99.99,,,0.00,Acu-Link.com,2013-08-04 09:58:00,
2013-08-04 05:14:00,71.6,68.8,30.02,ENE,67,2.2,-999.0,91,-99.99,,,0.00,Acu-Link.com,2013-08-04 10:14:00,
2013-08-04 05:29:00,71.8,69.0,30.01,ENE,67,3.2,-999.0,91,-99.99,,,0.00,Acu-Link.com,2013-08-04 10:29:00,
2013-08-04 05:44:00,72.3,69.5,30.01,East,90,6.3,-999.0,91,-99.99,,,0.00,Acu-Link.com,2013-08-04 10:44:00,
2013-08-04 06:00:00,72.3,69.2,30.01,East,90,3.7,-999.0,90,-99.99,,,0.00,Acu-Link.com,2013-08-04 11:00:00,
2013-08-04 06:15:00,72.5,69.4,30.01,ESE,112,3.7,-999.0,90,-99.99,,,0.00,Acu-Link.com,2013-08-04 11:15:00,
2013-08-04 06:30:00,72.5,69.4,30.02,East,90,3.7,-999.0,90,-99.99,,,0.00,Acu-Link.com,2013-08-04 11:30:00,
2013-08-04 06:46:00,72.7,69.6,30.02,ESE,112,6.3,-999.0,90,-99.99,,,0.00,Acu-Link.com,2013-08-04 11:46:00,
2013-08-04 07:01:00,72.9,69.5,30.03,ESE,112,2.7,-999.0,89,-99.99,,,0.00,Acu-Link.com,2013-08-04 12:01:00,
2013-08-04 07:16:00,73.2,69.4,30.02,East,90,3.7,-999.0,88,-99.99,,,0.00,Acu-Link.com,2013-08-04 12:16:00,
2013-08-04 07:31:00,73.4,69.6,30.03,ESE,112,3.7,-999.0,88,-99.99,,,0.00,Acu-Link.com,2013-08-04 12:31:00,
2013-08-04 07:46:00,73.4,69.6,30.04,East,90,4.2,-999.0,88,-99.99,,,0.00,Acu-Link.com,2013-08-04 12:46:00,
2013-08-04 08:02:00,73.4,69.6,30.04,SE,135,2.7,-999.0,88,-99.99,,,0.00,Acu-Link.com,2013-08-04 13:02:00,
2013-08-04 08:17:00,73.4,69.6,30.04,East,90,2.7,-999.0,88,-99.99,,,0.00,Acu-Link.com,2013-08-04 13:17:00,
2013-08-04 08:32:00,73.4,69.6,30.04,ESE,112,3.7,-999.0,88,-99.99,,,0.00,Acu-Link.com,2013-08-04 13:32:00,
2013-08-04 08:48:00,73.2,69.8,30.04,SE,135,4.2,-999.0,89,-99.99,,,0.00,Acu-Link.com,2013-08-04 13:48:00,
2013-08-04 09:03:00,73.2,69.8,30.05,SE,135,3.2,-999.0,89,-99.99,,,0.00,Acu-Link.com,2013-08-04 14:03:00,
2013-08-04 09:17:00,73.0,69.6,30.05,ESE,112,4.2,-999.0,89,-99.99,,,0.00,Acu-Link.com,2013-08-04 14:17:00,
2013-08-04 09:33:00,73.0,69.6,30.05,East,90,3.2,-999.0,89,-99.99,,,0.00,Acu-Link.com,2013-08-04 14:33:00,
2013-08-04 09:48:00,73.0,69.6,30.06,ESE,112,5.3,-999.0,89,-99.99,,,0.01,Acu-Link.com,2013-08-04 14:48:00,
2013-08-04 10:04:00,73.0,69.6,30.06,ESE,112,2.7,-999.0,89,-99.99,,,0.03,Acu-Link.com,2013-08-04 15:04:00,
2013-08-04 10:19:00,72.9,69.8,30.08,ENE,67,1.1,-999.0,90,-99.99,,,0.04,Acu-Link.com,2013-08-04 15:19:00,
2013-08-04 10:34:00,72.9,69.8,30.09,West,270,2.7,-999.0,90,-99.99,,,0.05,Acu-Link.com,2013-08-04 15:34:00,
2013-08-04 10:49:00,72.3,69.5,30.10,SW,225,3.7,-999.0,91,-99.99,,,0.19,Acu-Link.com,2013-08-04 15:49:00,
2013-08-04 11:05:00,71.1,67.7,30.11,West,270,1.7,-999.0,89,-99.99,,,0.44,Acu-Link.com,2013-08-04 16:05:00,
2013-08-04 11:20:00,70.2,66.8,30.11,West,270,0.0,-999.0,89,-99.99,,,0.51,Acu-Link.com,2013-08-04 16:20:00,
2013-08-04 11:35:00,70.0,66.9,30.10,NW,315,0.0,-999.0,90,-99.99,,,0.72,Acu-Link.com,2013-08-04 16:35:00,
2013-08-04 11:50:00,70.0,66.9,30.10,SSE,157,2.2,-999.0,90,-99.99,,,0.84,Acu-Link.com,2013-08-04 16:50:00,
2013-08-04 12:06:00,70.0,66.9,30.09,North,0,0.0,-999.0,90,-99.99,,,0.93,Acu-Link.com,2013-08-04 17:06:00,
2013-08-04 12:22:00,70.0,66.9,30.09,SE,135,0.0,-999.0,90,-99.99,,,1.07,Acu-Link.com,2013-08-04 17:22:00,
2013-08-04 12:37:00,70.5,67.4,30.09,SSE,157,2.7,-999.0,90,-99.99,,,1.14,Acu-Link.com,2013-08-04 17:37:00,
2013-08-04 12:52:00,70.9,67.8,30.08,South,180,1.7,-999.0,90,-99.99,,,1.19,Acu-Link.com,2013-08-04 17:52:00,
2013-08-04 13:08:00,71.4,68.3,30.08,NW,315,1.1,-999.0,90,-99.99,,,1.20,Acu-Link.com,2013-08-04 18:08:00,
2013-08-04 13:23:00,71.6,68.5,30.07,SSE,157,2.2,-999.0,90,-99.99,,,1.23,Acu-Link.com,2013-08-04 18:23:00,
2013-08-04 13:38:00,71.8,68.4,30.07,SSE,157,1.7,-999.0,89,-99.99,,,1.25,Acu-Link.com,2013-08-04 18:38:00,
2013-08-04 13:53:00,72.1,68.7,30.07,SSE,157,1.1,-999.0,89,-99.99,,,1.30,Acu-Link.com,2013-08-04 18:53:00,
2013-08-04 14:08:00,72.1,68.7,30.07,SSE,157,2.2,-999.0,89,-99.99,,,1.33,Acu-Link.com,2013-08-04 19:08:00,
2013-08-04 14:24:00,72.0,68.6,30.06,SSE,157,3.7,-999.0,89,-99.99,,,1.34,Acu-Link.com,2013-08-04 19:24:00,
2013-08-04 14:39:00,72.1,68.7,30.05,ESE,112,2.7,-999.0,89,-99.99,,,1.35,Acu-Link.com,2013-08-04 19:39:00,
2013-08-04 14:54:00,72.5,69.1,30.05,SE,135,4.7,-999.0,89,-99.99,,,1.36,Acu-Link.com,2013-08-04 19:54:00,
2013-08-04 15:09:00,72.5,69.1,30.04,SSE,157,3.7,-999.0,89,-99.99,,,1.37,Acu-Link.com,2013-08-04 20:09:00,
2013-08-04 15:24:00,72.5,69.1,30.04,SE,135,1.7,-999.0,89,-99.99,,,1.39,Acu-Link.com,2013-08-04 20:24:00,
2013-08-04 15:40:00,72.7,69.3,30.03,ESE,112,4.2,-999.0,89,-99.99,,,1.40,Acu-Link.com,2013-08-04 20:40:00,
2013-08-04 15:55:00,72.9,69.5,30.02,ESE,112,5.3,-999.0,89,-99.99,,,1.42,Acu-Link.com,2013-08-04 20:55:00,
2013-08-04 16:10:00,72.7,68.9,30.01,ESE,112,2.7,-999.0,88,-99.99,,,1.42,Acu-Link.com,2013-08-04 21:10:00,
2013-08-04 16:25:00,72.3,68.2,29.99,SE,135,5.3,-999.0,87,-99.99,,,1.43,Acu-Link.com,2013-08-04 21:25:00,
2013-08-04 16:40:00,72.3,68.2,29.99,East,90,4.2,-999.0,87,-99.99,,,1.43,Acu-Link.com,2013-08-04 21:40:00,
2013-08-04 16:56:00,72.9,68.5,29.99,SE,135,3.7,-999.0,86,-99.99,,,1.43,Acu-Link.com,2013-08-04 21:56:00,
2013-08-04 17:11:00,73.0,68.6,29.98,SSE,157,2.7,-999.0,86,-99.99,,,1.43,Acu-Link.com,2013-08-04 22:11:00,
2013-08-04 17:42:00,73.6,68.1,29.98,SSW,202,2.7,-999.0,83,-99.99,,,1.43,Acu-Link.com,2013-08-04 22:42:00,
2013-08-04 17:57:00,73.6,68.5,29.97,SE,135,1.7,-999.0,84,-99.99,,,1.43,Acu-Link.com,2013-08-04 22:57:00,
2013-08-04 18:13:00,73.0,68.2,29.97,ENE,67,2.2,-999.0,85,-99.99,,,1.43,Acu-Link.com,2013-08-04 23:13:00,
2013-08-04 18:28:00,73.0,68.6,29.97,East,90,2.7,-999.0,86,-99.99,,,1.43,Acu-Link.com,2013-08-04 23:28:00,
2013-08-04 18:43:00,72.9,68.5,29.98,NE,45,0.0,-999.0,86,-99.99,,,1.43,Acu-Link.com,2013-08-04 23:43:00,
2013-08-04 18:58:00,72.5,68.4,29.98,ESE,112,1.1,-999.0,87,-99.99,,,1.43,Acu-Link.com,2013-08-04 23:58:00,
2013-08-04 19:14:00,72.1,68.0,29.99,SSW,202,1.7,-999.0,87,-99.99,,,1.43,Acu-Link.com,2013-08-05 00:14:00,
2013-08-04 19:29:00,71.6,67.9,29.98,WSW,247,1.1,-999.0,88,-99.99,,,1.43,Acu-Link.com,2013-08-05 00:29:00,
2013-08-04 19:44:00,71.4,68.0,30.00,NNW,337,0.0,-999.0,89,-99.99,,,1.43,Acu-Link.com,2013-08-05 00:44:00,
2013-08-04 19:59:00,71.2,68.1,29.98,East,90,4.2,-999.0,90,-99.99,,,1.47,Acu-Link.com,2013-08-05 00:59:00,
2013-08-04 20:15:00,71.1,68.0,29.97,East,90,4.2,-999.0,90,-99.99,,,1.49,Acu-Link.com,2013-08-05 01:15:00,
2013-08-04 20:30:00,71.1,68.0,29.98,SSE,157,2.2,-999.0,90,-99.99,,,1.49,Acu-Link.com,2013-08-05 01:30:00,
2013-08-04 20:46:00,70.9,67.8,29.97,SE,135,2.7,-999.0,90,-99.99,,,1.49,Acu-Link.com,2013-08-05 01:46:00,
2013-08-04 21:01:00,70.7,67.6,29.98,SE,135,2.2,-999.0,90,-99.99,,,1.49,Acu-Link.com,2013-08-05 02:01:00,
2013-08-04 21:16:00,70.5,67.4,29.97,ESE,112,1.7,-999.0,90,-99.99,,,1.49,Acu-Link.com,2013-08-05 02:16:00,
2013-08-04 21:31:00,70.5,67.4,29.98,SSE,157,2.7,-999.0,90,-99.99,,,1.49,Acu-Link.com,2013-08-05 02:31:00,
2013-08-04 21:46:00,70.5,67.4,29.99,ENE,67,2.7,-999.0,90,-99.99,,,1.49,Acu-Link.com,2013-08-05 02:46:00,
2013-08-04 22:02:00,70.5,67.4,29.99,SE,135,4.2,-999.0,90,-99.99,,,1.49,Acu-Link.com,2013-08-05 03:02:00,
2013-08-04 22:17:00,70.5,67.4,29.99,SSW,202,2.2,-999.0,90,-99.99,,,1.49,Acu-Link.com,2013-08-05 03:17:00,
2013-08-04 22:32:00,70.5,67.4,29.99,ESE,112,3.2,-999.0,90,-99.99,,,1.49,Acu-Link.com,2013-08-05 03:32:00,
2013-08-04 22:47:00,70.3,67.2,29.99,SE,135,0.0,-999.0,90,-99.99,,,1.49,Acu-Link.com,2013-08-05 03:47:00,
2013-08-04 23:02:00,70.3,67.2,29.99,East,90,0.0,-999.0,90,-99.99,,,1.49,Acu-Link.com,2013-08-05 04:02:00,
2013-08-04 23:18:00,70.3,67.2,29.99,SSE,157,2.7,-999.0,90,-99.99,,,1.49,Acu-Link.com,2013-08-05 04:18:00,
2013-08-04 23:33:00,70.3,67.2,29.98,SE,135,5.8,-999.0,90,-99.99,,,1.49,Acu-Link.com,2013-08-05 04:33:00,
2013-08-04 23:49:00,70.5,67.4,29.98,SE,135,5.3,-999.0,90,-99.99,,,1.49,Acu-Link.com,2013-08-05 04:49:00,